createdAt,value
2023-11-01T00:01:20.554Z,98754.06
2023-11-01T00:03:48.965Z,98739.91
2023-11-01T00:06:17.341Z,98750.41
2023-11-01T00:08:46.927Z,98744.19
2023-11-01T00:11:15.373Z,98734.41
2023-11-01T00:13:43.560Z,98729.44
2023-11-01T00:16:11.966Z,98723.09
2023-11-01T00:18:40.568Z,98726.16
2023-11-01T00:21:09.047Z,98748.75
2023-11-01T00:23:37.310Z,98743.47
2023-11-01T00:26:08.524Z,98738.03
2023-11-01T00:28:36.860Z,98729.25
2023-11-01T00:31:05.440Z,98729.25
2023-11-01T00:33:33.750Z,98723.81
2023-11-01T00:36:02.116Z,98708.44
2023-11-01T00:38:31.490Z,98707.94
2023-11-01T00:41:03.813Z,98718.34
2023-11-01T00:43:33.732Z,98737.25
2023-11-01T00:46:02.139Z,98737.13
2023-11-01T00:48:30.361Z,98731.31
2023-11-01T00:50:58.627Z,98730.84
2023-11-01T00:53:26.951Z,98742.13
2023-11-01T00:55:55.183Z,98741.06
2023-11-01T00:58:24.022Z,98731.94
2023-11-01T01:00:53.839Z,98733.25
2023-11-01T01:03:23.370Z,98727.81
2023-11-01T01:05:51.684Z,98719.38
2023-11-01T01:08:20.005Z,98712.69
2023-11-01T01:10:49.564Z,98706.56
2023-11-01T01:13:17.814Z,98697.84
2023-11-01T01:15:46.147Z,98666.34
2023-11-01T01:18:18.875Z,98645.94
2023-11-01T01:20:47.324Z,98625.75
2023-11-01T01:23:15.843Z,98631.09
2023-11-01T01:25:44.509Z,98657.69
2023-11-01T01:28:12.683Z,98672.69
2023-11-01T01:30:40.901Z,98660.88
2023-11-01T01:33:09.155Z,98668.50
2023-11-01T01:35:39.588Z,98663.91
2023-11-01T01:38:08.035Z,98658.34
2023-11-01T01:40:36.305Z,98667.69
2023-11-01T01:43:19.272Z,98672.59
2023-11-01T01:45:47.896Z,98674.44
2023-11-01T01:48:16.261Z,98656.25
2023-11-01T01:50:46.141Z,98659.69
2023-11-01T01:53:14.747Z,98654.34
2023-11-01T01:55:43.781Z,98670.06
2023-11-01T01:58:13.035Z,98651.97
2023-11-01T02:00:41.415Z,98642.50
2023-11-01T02:03:09.764Z,98641.47
2023-11-01T02:05:38.430Z,98645.94
2023-11-01T02:08:08.709Z,98647.66
2023-11-01T02:10:37.031Z,98638.31
2023-11-01T02:13:15.679Z,98641.41
2023-11-01T02:15:47.338Z,98634.31
2023-11-01T02:18:15.982Z,98634.81
2023-11-01T02:20:48.818Z,98624.53
2023-11-01T02:23:18.589Z,98619.59
2023-11-01T02:25:48.268Z,98605.28
2023-11-01T02:28:17.141Z,98607.44
2023-11-01T02:30:45.546Z,98596.41
2023-11-01T02:33:14.306Z,98592.75
2023-11-01T02:35:42.581Z,98593.72
2023-11-01T02:38:12.626Z,98594.19
2023-11-01T02:40:41.142Z,98587.78
2023-11-01T02:43:11.158Z,98610.75
2023-11-01T02:45:39.609Z,98637.75
2023-11-01T02:48:08.829Z,98608.59
2023-11-01T02:50:37.339Z,98596.72
2023-11-01T02:53:05.701Z,98604.97
2023-11-01T02:55:33.917Z,98588.28
2023-11-01T02:58:04.467Z,98587.22
2023-11-01T03:00:34.192Z,98602.97
2023-11-01T03:03:02.634Z,98589.09
2023-11-01T03:05:31.341Z,98590.16
2023-11-01T03:07:59.592Z,98585.56
2023-11-01T03:10:28.009Z,98581.00
2023-11-01T03:12:57.436Z,98574.75
2023-11-01T03:15:25.682Z,98570.16
2023-11-01T03:17:55.402Z,98565.72
2023-11-01T03:20:23.748Z,98571.63
2023-11-01T03:25:50.956Z,98565.22
2023-11-01T03:28:19.353Z,98565.81
2023-11-01T03:30:47.686Z,98561.00
2023-11-01T03:33:17.592Z,98555.22
2023-11-01T03:35:45.961Z,98558.09
2023-11-01T03:38:14.299Z,98549.53
2023-11-01T03:40:42.551Z,98539.94
2023-11-01T03:43:10.738Z,98544.66
2023-11-01T03:45:39.204Z,98535.94
2023-11-01T03:48:08.371Z,98529.72
2023-11-01T03:50:38.046Z,98526.53
2023-11-01T03:53:06.407Z,98521.56
2023-11-01T03:55:34.552Z,98527.03
2023-11-01T03:58:02.923Z,98529.63
2023-11-01T04:00:31.116Z,98533.41
2023-11-01T04:02:59.642Z,98526.94
2023-11-01T04:05:27.902Z,98525.41
2023-11-01T04:07:58.107Z,98520.19
2023-11-01T04:10:26.371Z,98531.66
2023-11-01T04:12:54.833Z,98543.47
2023-11-01T04:15:23.629Z,98548.09
2023-11-01T04:17:53.379Z,98552.09
2023-11-01T04:20:21.652Z,98536.72
2023-11-01T04:22:49.867Z,98537.69
2023-11-01T04:25:19.546Z,98532.38
2023-11-01T04:27:47.796Z,98531.66
2023-11-01T04:30:16.929Z,98532.25
2023-11-01T04:32:45.689Z,98531.09
2023-11-01T04:35:14.192Z,98531.19
2023-11-01T04:37:43.856Z,98529.66
2023-11-01T04:40:13.594Z,98526.81
2023-11-01T04:42:45.674Z,98523.50
2023-11-01T04:45:14.618Z,98520.28
2023-11-01T04:47:44.276Z,98531.53
2023-11-01T04:50:15.077Z,98528.09
2023-11-01T04:52:45.324Z,98530.31
2023-11-01T04:55:13.820Z,98531.28
2023-11-01T04:57:44.452Z,98538.03
2023-11-01T05:00:17.703Z,98531.28
2023-11-01T05:02:47.436Z,98539.09
2023-11-01T05:05:15.938Z,98533.06
2023-11-01T05:07:44.683Z,98522.88
2023-11-01T05:10:12.942Z,98525.84
2023-11-01T05:12:41.213Z,98524.41
2023-11-01T05:15:11.927Z,98516.50
2023-11-01T05:17:41.684Z,98509.28
2023-11-01T05:20:11.682Z,98517.56
2023-11-01T05:22:39.868Z,98523.69
2023-11-01T05:25:15.015Z,98513.75
2023-11-01T05:27:43.565Z,98519.47
2023-11-01T05:30:16.803Z,98542.59
2023-11-01T05:32:47.790Z,98532.31
2023-11-01T05:35:17.503Z,98533.84
2023-11-01T05:37:46.053Z,98525.44
2023-11-01T05:40:17.924Z,98516.94
2023-11-01T05:42:47.741Z,98528.16
2023-11-01T05:45:18.961Z,98524.03
2023-11-01T05:47:52.460Z,98527.91
2023-11-01T05:50:24.966Z,98526.97
2023-11-01T05:52:54.917Z,98532.28
2023-11-01T05:55:26.720Z,98536.78
2023-11-01T05:58:02.384Z,98544.19
2023-11-01T06:00:33.111Z,98551.03
2023-11-01T06:03:01.693Z,98541.78
2023-11-01T06:05:29.985Z,98542.44
2023-11-01T06:07:58.244Z,98552.97
2023-11-01T06:10:26.502Z,98535.09
2023-11-01T06:12:55.118Z,98544.09
2023-11-01T06:15:23.440Z,98550.59
2023-11-01T06:17:53.526Z,98543.28
2023-11-01T06:20:22.212Z,98536.41
2023-11-01T06:22:50.929Z,98537.25
2023-11-01T06:25:21.374Z,98527.09
2023-11-01T06:27:49.768Z,98522.94
2023-11-01T06:30:18.537Z,98517.19
2023-11-01T06:32:47.139Z,98521.44
2023-11-01T06:35:17.465Z,98524.47
2023-11-01T06:37:47.738Z,98540.63
2023-11-01T06:40:16.549Z,98542.84
2023-11-01T06:42:44.753Z,98553.41
2023-11-01T06:45:13.819Z,98562.03
2023-11-01T06:47:43.603Z,98565.66
2023-11-01T06:50:12.210Z,98573.78
2023-11-01T06:52:45.944Z,98584.28
2023-11-01T06:55:14.648Z,98590.53
2023-11-01T06:57:43.001Z,98594.88
2023-11-01T07:00:12.273Z,98598.91
2023-11-01T07:02:40.606Z,98596.31
2023-11-01T07:05:09.215Z,98595.78
2023-11-01T07:07:37.487Z,98599.94
2023-11-01T07:10:09.813Z,98606.34
2023-11-01T07:12:37.872Z,98614.06
2023-11-01T07:15:09.223Z,98610.59
2023-11-01T07:17:37.630Z,98619.81
2023-11-01T07:20:07.044Z,98609.66
2023-11-01T07:22:35.305Z,98621.88
2023-11-01T07:25:03.924Z,98637.25
2023-11-01T07:27:33.623Z,98640.53
2023-11-01T07:30:02.081Z,98632.31
2023-11-01T07:32:30.591Z,98650.50
2023-11-01T07:34:59.556Z,98633.41
2023-11-01T07:37:27.789Z,98647.47
2023-11-01T07:39:56.039Z,98649.91
2023-11-01T07:42:24.231Z,98664.63
2023-11-01T07:44:54.232Z,98665.72
2023-11-01T07:47:22.546Z,98670.34
2023-11-01T07:49:51.082Z,98667.53
2023-11-01T07:52:19.685Z,98683.31
2023-11-01T07:54:48.043Z,98682.72
2023-11-01T07:57:16.256Z,98715.56
2023-11-01T07:59:44.520Z,98704.13
2023-11-01T08:02:14.256Z,98700.81
2023-11-01T08:04:42.717Z,98695.66
2023-11-01T08:07:12.242Z,98707.78
2023-11-01T08:09:41.328Z,98709.06
2023-11-01T08:12:10.253Z,98712.59
2023-11-01T08:14:38.504Z,98716.13
2023-11-01T08:17:06.760Z,98719.28
2023-11-01T08:19:37.253Z,98723.47
2023-11-01T08:22:06.009Z,98723.75
2023-11-01T08:24:34.271Z,98717.63
2023-11-01T08:27:02.670Z,98719.00
2023-11-01T08:29:32.288Z,98726.97
2023-11-01T08:32:00.558Z,98742.41
2023-11-01T08:34:28.827Z,98737.69
2023-11-01T08:36:58.369Z,98736.38
2023-11-01T08:39:27.040Z,98736.44
2023-11-01T08:41:55.269Z,98741.25
2023-11-01T08:44:23.773Z,98746.16
2023-11-01T08:46:52.128Z,98742.09
2023-11-01T08:49:20.376Z,98731.13
2023-11-01T08:51:48.791Z,98727.63
2023-11-01T08:54:18.363Z,98730.09
2023-11-01T08:56:46.629Z,98736.47
2023-11-01T08:59:15.023Z,98756.69
2023-11-01T09:01:43.462Z,98742.84
2023-11-01T09:04:12.120Z,98759.88
2023-11-01T09:06:40.340Z,98758.94
2023-11-01T09:09:08.641Z,98767.28
2023-11-01T09:11:38.358Z,98776.38
2023-11-01T09:14:06.883Z,98768.44
2023-11-01T09:16:35.261Z,98769.66
2023-11-01T09:19:03.402Z,98772.47
2023-11-01T09:21:36.925Z,98783.06
2023-11-01T09:24:05.985Z,98776.78
2023-11-01T09:26:34.502Z,98781.44
2023-11-01T09:31:37.372Z,98787.50
2023-11-01T09:34:05.802Z,98790.63
2023-11-01T09:36:33.980Z,98789.13
2023-11-01T09:39:02.239Z,98792.81
2023-11-01T09:41:35.634Z,98793.03
2023-11-01T09:44:06.010Z,98784.16
2023-11-01T09:46:34.714Z,98792.28
2023-11-01T09:49:03.362Z,98795.00
2023-11-01T09:51:33.511Z,98801.66
2023-11-01T09:54:02.567Z,98814.75
2023-11-01T09:56:36.736Z,98810.19
2023-11-01T09:59:07.202Z,98804.06
2023-11-01T10:01:36.959Z,98801.78
2023-11-01T10:04:06.286Z,98797.28
2023-11-01T10:06:36.352Z,98799.53
2023-11-01T10:09:04.941Z,98807.75
2023-11-01T10:11:33.522Z,98814.97
2023-11-01T10:14:02.312Z,98807.91
2023-11-01T10:16:33.184Z,98818.38
2023-11-01T10:19:04.461Z,98822.78
2023-11-01T10:21:33.177Z,98833.47
2023-11-01T10:24:02.384Z,98818.75
2023-11-01T10:26:31.766Z,98829.09
2023-11-01T10:29:02.029Z,98826.44
2023-11-01T10:31:31.695Z,98827.44
2023-11-01T10:34:00.646Z,98833.66
2023-11-01T10:36:29.001Z,98840.31
2023-11-01T10:38:57.672Z,98838.22
2023-11-01T10:41:28.119Z,98836.72
2023-11-01T10:43:57.843Z,98849.44
2023-11-01T10:46:27.124Z,98830.44
2023-11-01T10:48:57.242Z,98833.84
2023-11-01T10:51:26.229Z,98829.00
2023-11-01T10:53:55.426Z,98845.72
2023-11-01T10:56:23.925Z,98856.94
2023-11-01T10:58:54.928Z,98855.44
2023-11-01T11:01:29.815Z,98839.47
2023-11-01T11:04:13.947Z,98837.56
2023-11-01T11:06:51.817Z,98836.22
2023-11-01T11:09:23.560Z,98837.03
2023-11-01T11:12:15.295Z,98819.63
2023-11-01T11:14:44.925Z,98825.41
2023-11-01T11:17:16.144Z,98820.91
2023-11-01T11:20:14.932Z,98825.03
2023-11-01T11:23:15.431Z,98820.59
2023-11-01T11:25:53.882Z,98813.59
2023-11-01T11:28:49.733Z,98820.50
2023-11-01T11:31:25.138Z,98803.28
2023-11-01T11:34:13.906Z,98794.94
2023-11-01T11:37:09.658Z,98805.41
2023-11-01T11:40:02.883Z,98794.38
2023-11-01T11:42:52.692Z,98788.78
2023-11-01T11:45:34.350Z,98804.38
2023-11-01T11:48:04.905Z,98786.00
2023-11-01T11:50:33.687Z,98792.03
2023-11-01T11:53:04.173Z,98778.00
2023-11-01T11:55:43.892Z,98765.66
2023-11-01T11:58:12.621Z,98768.06
2023-11-01T12:00:47.581Z,98773.38
2023-11-01T12:03:26.441Z,98776.69
2023-11-01T12:06:02.012Z,98787.31
2023-11-01T12:08:41.841Z,98804.72
2023-11-01T12:11:12.190Z,98791.59
2023-11-01T12:13:49.320Z,98785.16
2023-11-01T12:16:28.517Z,98772.72
2023-11-01T12:19:11.305Z,98766.09
2023-11-01T12:21:44.015Z,98744.38
2023-11-01T12:24:16.457Z,98766.34
2023-11-01T12:26:58.248Z,98751.25
2023-11-01T12:29:33.101Z,98777.31
2023-11-01T12:32:06.007Z,98782.44
2023-11-01T12:34:35.007Z,98774.94
2023-11-01T12:37:04.928Z,98784.28
2023-11-01T12:39:36.363Z,98774.97
2023-11-01T12:42:26.865Z,98768.91
2023-11-01T12:44:56.978Z,98750.50
2023-11-01T12:47:28.623Z,98757.69
2023-11-01T12:49:59.813Z,98744.44
2023-11-01T12:52:28.206Z,98748.06
2023-11-01T12:54:57.882Z,98764.31
2023-11-01T12:57:26.470Z,98763.47
2023-11-01T12:59:54.891Z,98768.91
2023-11-01T13:02:24.104Z,98768.28
2023-11-01T13:04:52.443Z,98749.91
2023-11-01T13:07:20.904Z,98740.69
2023-11-01T13:09:49.410Z,98730.25
2023-11-01T13:12:19.213Z,98724.19
2023-11-01T13:14:47.687Z,98719.22
2023-11-01T13:17:16.009Z,98708.22
2023-11-01T13:19:44.268Z,98703.09
2023-11-01T13:22:13.270Z,98693.56
2023-11-01T13:24:41.656Z,98691.16
2023-11-01T13:27:11.340Z,98676.81
2023-11-01T13:29:44.773Z,98678.00
2023-11-01T13:32:13.271Z,98673.38
2023-11-01T13:34:41.628Z,98668.59
2023-11-01T13:37:10.005Z,98646.94
2023-11-01T13:39:38.429Z,98647.72
2023-11-01T13:42:07.108Z,98642.06
2023-11-01T13:44:35.698Z,98635.75
2023-11-01T13:47:05.723Z,98627.25
2023-11-01T13:49:34.419Z,98607.94
2023-11-01T13:52:03.000Z,98619.72
2023-11-01T13:54:31.379Z,98614.06
2023-11-01T13:56:59.861Z,98606.94
2023-11-01T13:59:28.222Z,98595.69
2023-11-01T14:01:57.533Z,98591.16
2023-11-01T14:04:27.793Z,98577.56
2023-11-01T14:06:56.283Z,98570.47
2023-11-01T14:09:24.902Z,98560.63
2023-11-01T14:11:54.144Z,98548.34
2023-11-01T14:14:24.500Z,98553.81
2023-11-01T14:16:53.440Z,98562.50
2023-11-01T14:19:23.006Z,98549.50
2023-11-01T14:21:52.804Z,98529.75
2023-11-01T14:24:21.464Z,98516.72
2023-11-01T14:26:49.980Z,98506.75
2023-11-01T14:29:18.512Z,98493.00
2023-11-01T14:31:46.939Z,98473.75
2023-11-01T14:34:15.371Z,98461.22
2023-11-01T14:36:45.257Z,98450.34
2023-11-01T14:39:15.231Z,98424.56
2023-11-01T14:41:43.747Z,98419.59
2023-11-01T14:44:12.014Z,98410.44
2023-11-01T14:46:43.086Z,98401.47
2023-11-01T14:49:11.850Z,98405.13
2023-11-01T14:51:43.803Z,98402.31
2023-11-01T14:54:12.379Z,98423.53
2023-11-01T14:56:42.488Z,98425.16
2023-11-01T14:59:11.097Z,98402.81
2023-11-01T15:01:41.032Z,98399.69
2023-11-01T15:04:10.761Z,98382.56
2023-11-01T15:06:39.138Z,98377.16
2023-11-01T15:09:07.894Z,98366.41
2023-11-01T15:11:38.621Z,98358.25
2023-11-01T15:14:08.632Z,98350.00
2023-11-01T15:16:37.366Z,98332.16
2023-11-01T15:19:06.220Z,98316.19
2023-11-01T15:21:35.640Z,98311.09
2023-11-01T15:24:04.478Z,98298.84
2023-11-01T15:26:35.205Z,98284.66
2023-11-01T15:29:05.536Z,98270.09
2023-11-01T15:31:39.584Z,98250.47
2023-11-01T15:34:09.947Z,98242.25
2023-11-01T15:36:39.022Z,98242.03
2023-11-01T15:39:07.564Z,98235.59
2023-11-01T15:41:35.957Z,98215.69
2023-11-01T15:44:04.346Z,98196.34
2023-11-01T15:46:34.130Z,98185.31
2023-11-01T15:49:03.718Z,98177.25
2023-11-01T15:51:32.368Z,98156.44
2023-11-01T15:54:00.737Z,98135.75
2023-11-01T15:56:29.352Z,98129.78
2023-11-01T15:58:58.035Z,98118.63
2023-11-01T16:01:26.389Z,98117.94
2023-11-01T16:03:57.116Z,98124.47
2023-11-01T16:06:25.638Z,98130.72
2023-11-01T16:08:54.980Z,98115.41
2023-11-01T16:11:24.006Z,98109.25
2023-11-01T16:13:52.308Z,98110.81
2023-11-01T16:16:20.670Z,98091.50
2023-11-01T16:18:50.026Z,98068.56
2023-11-01T16:21:20.139Z,98059.59
2023-11-01T16:23:50.432Z,98034.59
2023-11-01T16:26:19.021Z,98024.97
2023-11-01T16:28:47.764Z,98021.66
2023-11-01T16:31:16.581Z,97999.16
2023-11-01T16:33:46.206Z,97993.72
2023-11-01T16:36:16.151Z,97982.50
2023-11-01T16:38:54.483Z,97961.50
2023-11-01T16:41:22.912Z,97954.94
2023-11-01T16:43:51.258Z,97933.97
2023-11-01T16:46:22.096Z,97926.16
2023-11-01T16:48:50.501Z,97912.25
2023-11-01T16:51:19.027Z,97878.22
2023-11-01T16:53:50.665Z,97867.50
2023-11-01T16:56:20.305Z,97858.81
2023-11-01T16:58:48.742Z,97831.47
2023-11-01T17:01:17.840Z,97810.50
2023-11-01T17:03:47.942Z,97778.44
2023-11-01T17:06:17.980Z,97747.38
2023-11-01T17:08:46.806Z,97748.41
2023-11-01T17:11:26.835Z,97715.56
2023-11-01T17:13:57.544Z,97696.16
2023-11-01T17:16:26.244Z,97679.53
2023-11-01T17:18:54.623Z,97668.47
2023-11-01T17:21:25.395Z,97642.56
2023-11-01T17:23:55.105Z,97612.38
2023-11-01T17:26:27.514Z,97589.88
2023-11-01T17:29:00.855Z,97569.97
2023-11-01T17:31:37.815Z,97540.22
2023-11-01T17:34:06.545Z,97506.03
2023-11-01T17:36:36.876Z,97483.91
2023-11-01T17:39:07.606Z,97463.16
2023-11-01T17:42:05.604Z,97433.00
2023-11-01T17:44:40.515Z,97414.97
2023-11-01T17:47:12.684Z,97395.06
2023-11-01T17:49:56.607Z,97391.69
2023-11-01T17:52:43.624Z,97386.22
2023-11-01T17:55:17.793Z,97387.44
2023-11-01T17:57:48.562Z,97364.66
2023-11-01T18:00:18.014Z,97347.72
2023-11-01T18:03:26.241Z,97353.72
2023-11-01T18:05:55.662Z,97312.38
2023-11-01T18:08:32.451Z,97303.78
2023-11-01T18:11:04.472Z,97254.91
2023-11-01T18:13:42.005Z,97248.50
2023-11-01T18:16:11.838Z,97240.03
2023-11-01T18:18:49.457Z,97207.38
2023-11-01T18:21:21.570Z,97170.47
2023-11-01T18:23:54.262Z,97145.19
2023-11-01T18:26:25.798Z,97144.09
2023-11-01T18:28:59.492Z,97113.63
2023-11-01T18:31:32.742Z,97082.16
2023-11-01T18:34:04.141Z,97052.06
2023-11-01T18:36:38.396Z,97054.28
2023-11-01T18:39:09.829Z,97027.50
2023-11-01T18:41:39.869Z,97021.19
2023-11-01T18:44:24.402Z,96974.84
2023-11-01T18:46:53.856Z,96942.47
2023-11-01T18:49:51.110Z,96892.38
2023-11-01T18:52:19.818Z,96866.13
2023-11-01T18:54:49.337Z,96836.47
2023-11-01T18:57:25.385Z,96816.06
2023-11-01T18:59:55.757Z,96785.91
2023-11-01T19:03:02.362Z,96783.31
2023-11-01T19:05:34.278Z,96758.47
2023-11-01T19:08:03.517Z,96787.91
2023-11-01T19:10:34.569Z,96744.88
2023-11-01T19:13:03.483Z,96757.53
2023-11-01T19:16:16.882Z,96713.19
2023-11-01T19:18:47.978Z,96736.56
2023-11-01T19:21:16.386Z,96741.28
2023-11-01T19:23:47.206Z,96743.41
2023-11-01T19:26:17.355Z,96723.88
2023-11-01T19:28:45.569Z,96714.78
2023-11-01T19:31:15.231Z,96731.81
2023-11-01T19:33:44.479Z,96718.28
2023-11-01T19:36:16.147Z,96715.69
2023-11-01T19:38:45.411Z,96720.84
2023-11-01T19:41:15.217Z,96692.53
2023-11-01T19:43:43.607Z,96695.94
2023-11-01T19:46:12.652Z,96679.97
2023-11-01T19:48:43.248Z,96686.06
2023-11-01T19:51:12.052Z,96671.22
2023-11-01T19:53:40.771Z,96669.81
2023-11-01T19:56:09.015Z,96648.09
2023-11-01T19:58:37.435Z,96646.41
2023-11-01T20:01:06.068Z,96621.63
2023-11-01T20:03:34.454Z,96627.19
2023-11-01T20:06:06.138Z,96625.91
2023-11-01T20:08:35.332Z,96601.63
2023-11-01T20:11:03.537Z,96594.38
2023-11-01T20:13:32.814Z,96587.56
2023-11-01T20:16:01.142Z,96586.50
2023-11-01T20:18:30.614Z,96571.94
2023-11-01T20:21:00.161Z,96583.84
2023-11-01T20:23:29.786Z,96575.22
2023-11-01T20:26:00.340Z,96568.28
2023-11-01T20:28:28.771Z,96561.47
2023-11-01T20:30:57.476Z,96546.81
2023-11-01T20:33:25.865Z,96544.84
2023-11-01T20:35:54.201Z,96535.38
2023-11-01T20:38:22.492Z,96527.69
2023-11-01T20:40:53.470Z,96507.84
2023-11-01T20:43:21.916Z,96495.34
2023-11-01T20:45:50.103Z,96485.78
2023-11-01T20:48:18.417Z,96461.25
2023-11-01T20:50:48.749Z,96465.13
2023-11-01T20:53:18.123Z,96453.84
2023-11-01T20:55:46.567Z,96442.56
2023-11-01T20:58:16.567Z,96413.69
2023-11-01T21:00:45.950Z,96428.84
2023-11-01T21:03:14.309Z,96419.56
2023-11-01T21:05:42.524Z,96414.00
2023-11-01T21:08:10.754Z,96386.38
2023-11-01T21:10:39.222Z,96363.88
2023-11-01T21:13:09.088Z,96346.00
2023-11-01T21:15:39.793Z,96340.44
2023-11-01T21:18:08.489Z,96298.63
2023-11-01T21:20:38.525Z,96327.72
2023-11-01T21:23:06.858Z,96307.34
2023-11-01T21:25:36.710Z,96278.41
2023-11-01T21:28:05.290Z,96297.38
2023-11-01T21:30:34.236Z,96257.34
2023-11-01T21:33:05.749Z,96274.00
2023-11-01T21:35:37.101Z,96290.34
2023-11-01T21:38:08.171Z,96299.72
2023-11-01T21:40:36.588Z,96278.88
2023-11-01T21:43:06.003Z,96255.50
2023-11-01T21:45:49.846Z,96250.53
2023-11-01T21:48:21.287Z,96255.00
2023-11-01T21:50:59.330Z,96237.56
2023-11-01T21:53:31.139Z,96200.59
2023-11-01T21:56:00.963Z,96184.41
2023-11-01T21:58:32.193Z,96171.13
2023-11-01T22:01:04.873Z,96156.91
2023-11-01T22:03:42.296Z,96134.78
2023-11-01T22:06:13.396Z,96125.63
2023-11-01T22:08:59.311Z,96142.59
2023-11-01T22:11:29.372Z,96076.38
2023-11-01T22:13:59.085Z,96053.28
2023-11-01T22:16:31.831Z,96050.53
2023-11-01T22:19:03.154Z,96039.13
2023-11-01T22:21:36.409Z,96007.81
2023-11-01T22:24:06.525Z,95994.72
2023-11-01T22:26:35.550Z,95980.97
2023-11-01T22:29:07.303Z,95961.72
2023-11-01T22:31:53.216Z,95940.84
2023-11-01T22:34:24.660Z,95921.50
2023-11-01T22:36:54.016Z,95951.41
2023-11-01T22:39:42.481Z,95919.16
2023-11-01T22:42:12.396Z,95890.78
2023-11-01T22:44:42.733Z,95890.50
2023-11-01T22:47:11.499Z,95836.75
2023-11-01T22:49:41.193Z,95841.13
2023-11-01T22:52:09.891Z,95811.50
2023-11-01T22:54:40.014Z,95820.63
2023-11-01T22:57:09.430Z,95825.13
2023-11-01T22:59:38.766Z,95790.47
2023-11-01T23:02:09.349Z,95775.69
2023-11-01T23:04:40.649Z,95774.72
2023-11-01T23:07:11.693Z,95744.16
2023-11-01T23:09:40.542Z,95734.59
2023-11-01T23:12:12.057Z,95701.22
2023-11-01T23:14:40.300Z,95710.09
2023-11-01T23:17:10.988Z,95687.00
2023-11-01T23:19:39.631Z,95668.22
2023-11-01T23:22:08.093Z,95646.84
2023-11-01T23:24:37.981Z,95649.88
2023-11-01T23:27:07.449Z,95601.75
2023-11-01T23:29:38.935Z,95585.75
2023-11-01T23:32:12.976Z,95596.75
2023-11-01T23:34:46.681Z,95569.19
2023-11-01T23:37:20.337Z,95581.47
2023-11-01T23:39:51.695Z,95514.69
2023-11-01T23:42:21.872Z,95485.94
2023-11-01T23:44:50.496Z,95497.59
2023-11-01T23:47:39.086Z,95464.06
2023-11-01T23:50:14.236Z,95455.22
2023-11-01T23:52:42.582Z,95431.69
2023-11-01T23:55:12.335Z,95451.09
2023-11-01T23:57:41.322Z,95467.63
